グアム国際空港の過去48時間の天気

グアム国際空港 (Agana, Guam International Airport)

現在時刻: 5/26 11:56 ChST (5/26 01:56 UTC) 以下の時間は現地時間です。

過去48時間のMETAR気象情報
時間 風向 風速(m/s) 視程 気温(℃) 湿度(%) 気圧(hPa) 天気現象
26 10:54 南東 4 10km以上 30.6 70 1010.7
26 09:54 東南東 4 10km以上 30.6 68 1011.2
26 08:54 4 10km以上 30 67 1011.2
26 07:54 東北東 4 10km以上 27.8 88 1011.3
26 06:54 3 10km以上 26.1 97 1011
26 05:54 東北東 3 10km以上 26.7 94 1010.5
26 04:54 3 10km以上 26.7 94 1010.2
26 03:54 東北東 4 10km以上 26.7 94 1010.2
26 02:54 東北東 4 10km以上 26.7 97 1010.2
26 01:54 北東 3 10km以上 27.2 94 1010.5
26 00:54 東北東 4 10km以上 27.2 94 1011.3
25 23:54 北東 4 10km以上 27.8 90 1011.9
25 22:54 東北東 3 10km以上 28.3 91 1011.9
25 21:54 東北東 3 10km以上 28.3 85 1011.8
25 20:54 5 10km以上 28.3 85 1011.3
25 19:54 4 10km以上 28.3 85 1010.8
25 18:54 4 10km以上 28.9 80 1010.1
25 17:54 東北東 7 10km以上 30 75 1009.4
25 16:54 6 10km以上 30.6 70 1008.9
25 15:54 7 10km以上 31.7 65 1008.7
25 14:54 6 10km以上 31.7 63 1009
25 13:54 7 10km以上 32.8 61 1009.6
25 12:54 7 10km以上 32.2 64 1010.8
25 11:54 8 10km以上 31.7 65 1011.7
25 10:54 7 10km以上 31.7 65 1012.6
25 09:54 9 10km以上 31.1 68 1013
25 09:49 7 10km以上 31 66 1014
25 09:42 8 10km以上 30.6 70 1014
25 08:54 7 10km以上 29.4 82 1013.3
25 08:46 5 10km以上 28.9 85 1014 弱い雨
25 07:54 6 10km以上 29.4 75 1012.9
25 06:54 東北東 4 10km以上 28.3 82 1012.3
25 05:54 東北東 5 10km以上 27.8 85 1011.9
25 04:54 東北東 4 10km以上 27.8 88 1011.7
25 03:54 東北東 4 10km以上 27.8 88 1011.6
25 02:54 東北東 4 10km以上 28.3 85 1011.7
25 01:54 東北東 6 10km以上 28.3 82 1012.2
25 00:54 東北東 5 10km以上 28.3 85 1013.1
24 23:54 5 10km以上 28.3 85 1013.7
24 22:54 5 10km以上 28.3 85 1014
24 21:54 東北東 4 10km以上 28.3 82 1014
24 20:54 東北東 3 10km以上 28.3 82 1013.5
24 19:54 東北東 5 10km以上 28.9 82 1012.8
24 18:54 東北東 5 10km以上 28.9 80 1012.3
24 17:54 4 10km以上 29.4 77 1012
24 16:54 6 10km以上 30.6 72 1011.7
24 15:54 5 10km以上 31.1 68 1011.6
24 14:54 5 10km以上 31.7 68 1012
24 14:05 6 10km以上 31.7 65 1013
24 13:54 6 10km以上 31.1 68 1012.1
24 13:45 6 10km以上 31.1 68 1013
24 12:54 7 10km以上 31.1 68 1012.8
24 12:24 6 10km以上 31.7 65 1014
PGUM 260054Z 13007KT 10SM FEW025 31/24 A2987 RMK AO2 SLP107 T03060244
PGUM 252354Z 11008KT 10SM FEW027 31/24 A2989 RMK AO2 SLP112 T03060239 10306 20261 51002
PGUM 252254Z COR 10008KT 10SM FEW028 30/23 A2989 RMK AO2 SLP112 T03000233
PGUM 252154Z COR 07007KT 10SM SCT028 28/26 A2989 RMK AO2 SLP113 T02780256 $
PGUM 252054Z 08006KT 10SM CLR 26/26 A2988 RMK AO2 SLP110 T02610256 53008 /
PGUM 251954Z 06006KT 10SM SCT024 26/26 A2987 RMK AO2 SLP105 T02670256 $
PGUM 251854Z 08005KT 10SM CLR 27/26 A2986 RMK AO2 SLP102 T02670256 $
PGUM 251754Z 06007KT 10SM CLR 27/26 A2986 RMK AO2 RAB16E28 SLP102 P0000 60005 T02670256 10283 20267 56012 $
PGUM 251654Z 07007KT 10SM CLR 27/26 A2986 RMK AO2 SLP102 T02670261 $
PGUM 251554Z 05005KT 10SM FEW060 27/26 A2987 RMK AO2 RAB06E26 SLP105 P0004 T02720261 $
PGUM 251454Z 06007KT 10SM FEW070 27/26 A2989 RMK AO2 SLP113 60001 T02720261 58005 $
PGUM 251354Z 05007KT 10SM CLR 28/26 A2991 RMK AO2 RAB30E40 SLP119 P0000 T02780261 403280272 $
PGUM 251254Z COR 07005KT 10SM FEW015 SCT046 28/27 A2991 RMK AO2 RAB41E54 SLP119 P0001 T02830267 $
PGUM 251154Z 07006KT 10SM SCT017 SCT024 28/26 A2991 RMK AO2 SLP118 70001 T02830256 10317 20283 51011 $
PGUM 251054Z 08009KT 10SM CLR 28/26 A2989 RMK AO2 SLP113 T02830256 $
PGUM 250954Z 09008KT 10SM FEW018 FEW033 28/26 A2987 RMK AO2 SLP108 T02830256 $
PGUM 250854Z 08008KT 10SM CLR 29/25 A2985 RMK AO2 SLP101 T02890250 53013 $
PGUM 250754Z 07013KT 10SM FEW019 30/25 A2983 RMK AO2 SLP094 T03000250 $
PGUM 250654Z COR 08012KT 10SM CLR 31/24 A2982 RMK AO2 SLP089 T03060244 $
PGUM 250554Z 09013KT 10SM FEW024 32/24 A2982 RMK AO2 SLP087 T03170244 10328 20300 56021 $
PGUM 250454Z COR 10011G18KT 10SM SCT028 32/24 A2982 RMK AO2 SLP090 T03170239 $
PGUM 250354Z COR 10014G20KT 10SM FEW026 33/24 A2984 RMK AO2 SLP096 T03280244 $
PGUM 250254Z 08014G19KT 10SM FEW023 32/24 A2988 RMK AO2 SLP108 T03220244 58022 $
PGUM 250154Z 09015G20KT 10SM FEW022 32/24 A2990 RMK AO2 SLP117 T03170244 $
PGUM 250054Z 08014G21KT 10SM SCT023 SCT029 32/24 A2993 RMK AO2 SLP126 T03170244 $
PGUM 242354Z 10017G21KT 10SM SCT023 SCT032 31/24 A2994 RMK AO2 SLP130 60001 T03110244 10311 20278 51002 $
PGUM 242349Z 08013G20KT 10SM SCT023 SCT032 31/24 A2994 RMK AO2 $
PGUM 242342Z 09015G21KT 10SM SCT023 BKN029 31/24 A2994 RMK AO2 T03060244 $
PGUM 242254Z 08014KT 10SM SCT022 SCT029 BKN038 29/26 A2995 RMK AO2 RAB40E51 SLP133 P0001 T02940261 $
PGUM 242246Z 09010KT 6SM -RA FEW020 BKN026 BKN037 29/26 A2995 RMK AO2 RAB40 P0000 T02890261 $
PGUM 242154Z 08011KT 10SM FEW020 29/24 A2994 RMK AO2 SLP129 T02940244 $
PGUM 242054Z 07008KT 10SM CLR 28/25 A2992 RMK AO2 SLP123 T02830250 53007 $
PGUM 241954Z 07009KT 10SM SCT021 28/25 A2991 RMK AO2 SLP119 T02780250 $
PGUM 241854Z 06007KT 10SM FEW019 SCT027 SCT037 28/26 A2990 RMK AO2 SLP117 T02780256 $
PGUM 241754Z 07007KT 10SM CLR 28/26 A2990 RMK AO2 SLP116 T02780256 10283 20278 56016 $
PGUM 241654Z 07008KT 10SM FEW110 28/26 A2990 RMK AO2 SLP117 T02830256 $
PGUM 241554Z 07011KT 10SM FEW021 28/25 A2992 RMK AO2 SLP122 T02830250 $
PGUM 241454Z 07010KT 10SM FEW022 SCT030 SCT040 28/26 A2994 RMK AO2 SLP131 T02830256 58008 $
PGUM 241354Z 08010KT 10SM CLR 28/26 A2996 RMK AO2 SLP137 T02830256 403220272 $
PGUM 241254Z COR 08009KT 10SM FEW017 28/26 A2997 RMK AO2 SLP140 T02830256 $
PGUM 241154Z 07007KT 10SM CLR 28/25 A2997 RMK AO2 SLP140 T02830250 10317 20283 52017 $
PGUM 241054Z 06006KT 10SM CLR 28/25 A2995 RMK AO2 SLP135 T02830250 $
PGUM 240954Z 07009KT 10SM CLR 29/26 A2993 RMK AO2 SLP128 T02890256 $
PGUM 240854Z 06009KT 10SM CLR 29/25 A2992 RMK AO2 SLP123 T02890250 53006 $
PGUM 240754Z 09008KT 10SM FEW021 SCT027 SCT049 29/25 A2991 RMK AO2 SLP120 T02940250 $
PGUM 240654Z 08011KT 10SM FEW024 SCT030 31/25 A2990 RMK AO2 SLP117 T03060250 $
PGUM 240554Z 09009KT 10SM FEW024 31/24 A2990 RMK AO2 SLP116 T03110244 10322 20300 56012 $
PGUM 240454Z 10010KT 10SM FEW023 32/25 A2991 RMK AO2 SLP120 T03170250 $
PGUM 240405Z 10012KT 10SM SCT025 32/24 A2991 RMK AO2 T03170244 $
PGUM 240354Z 09011KT 10SM SCT023 BKN028 BKN034 31/24 A2991 RMK AO2 SLP121 T03110244 $
PGUM 240345Z 10011KT 10SM BKN023 BKN031 31/24 A2992 RMK AO2 T03110244 $
PGUM 240254Z 08013G18KT 10SM SCT025 SCT034 31/24 A2993 RMK AO2 SLP128 T03110244 56016 $
PGUM 240224Z 08012KT 10SM SCT025 SCT033 32/24 A2994 RMK AO2 T03170244 $